Time;durP1;ratioP1;P1;durP2;ratioP2;P2;SDS_P1;SDS_P2;PMS_P1;PMS_P2;Temp;Humidity;BMP_temperature;BMP_pressure;BME280_temperature;BME280_humidity;BME280_pressure;Samples;Min_cycle;Max_cycle;Signal;HPM_P1;HPM_P2
2022/04/07 00:00:28;;;;;;;1.60;0.70;;;;;;;8.55;77.30;96003.81;5052309;28;20033;-59
2022/04/07 00:02:54;;;;;;;2.58;0.65;;;;;;;8.58;77.50;96011.34;5052719;28;20041;-61
2022/04/07 00:05:21;;;;;;;1.35;0.70;;;;;;;8.74;76.34;96014.03;5048145;28;20053;-60
2022/04/07 00:07:47;;;;;;;0.82;0.50;;;;;;;8.63;77.89;96003.25;5064275;28;20041;-60
2022/04/07 00:10:14;;;;;;;0.85;0.50;;;;;;;8.64;76.05;95987.88;5051753;28;20045;-60
2022/04/07 00:12:42;;;;;;;1.35;0.50;;;;;;;8.52;76.97;95985.44;5047846;28;20084;-60
2022/04/07 00:15:10;;;;;;;0.68;0.50;;;;;;;8.38;78.63;95983.31;5060033;28;20120;-61
2022/04/07 00:17:36;;;;;;;2.15;0.93;;;;;;;8.52;75.79;95986.22;5058132;28;20044;-60
2022/04/07 00:20:04;;;;;;;1.55;0.70;;;;;;;8.56;75.46;95990.03;5051881;28;20055;-60
2022/04/07 00:22:30;;;;;;;1.20;0.70;;;;;;;8.42;76.70;95978.16;5065290;28;20035;-60
2022/04/07 00:24:57;;;;;;;2.22;0.90;;;;;;;8.30;77.16;95971.16;5055229;28;20428;-61
2022/04/07 00:27:23;;;;;;;1.58;0.77;;;;;;;8.30;76.88;95968.47;5045567;28;20044;-59
2022/04/07 00:29:50;;;;;;;1.52;0.70;;;;;;;8.26;77.27;95969.31;5049052;28;20552;-59
2022/04/07 00:32:17;;;;;;;2.17;0.90;;;;;;;8.22;77.61;95963.63;5061315;28;20040;-59
2022/04/07 00:34:46;;;;;;;2.17;0.77;;;;;;;8.20;77.54;95960.41;5054710;28;20052;-60
2022/04/07 00:37:13;;;;;;;1.10;0.70;;;;;;;8.24;76.90;95964.16;5064153;28;20040;-60
2022/04/07 00:39:39;;;;;;;1.73;0.80;;;;;;;8.19;77.71;95958.78;5047656;28;20045;-59
2022/04/07 00:42:06;;;;;;;1.58;0.90;;;;;;;8.09;78.58;95954.22;5060257;28;20075;-60
2022/04/07 00:44:33;;;;;;;0.63;0.47;;;;;;;8.13;77.63;95949.06;5053241;28;20054;-60
2022/04/07 00:46:59;;;;;;;1.55;0.70;;;;;;;8.02;78.65;95949.09;5064116;28;20411;-60
2022/04/07 00:49:26;;;;;;;1.20;0.60;;;;;;;8.00;78.87;95947.75;5054536;28;20487;-61
2022/04/07 00:51:54;;;;;;;2.10;0.70;;;;;;;7.86;79.78;95950.19;5053308;28;20041;-60
2022/04/07 00:54:20;;;;;;;1.33;0.65;;;;;;;7.80;80.59;95952.88;5059825;28;20331;-60
2022/04/07 00:56:47;;;;;;;1.20;0.68;;;;;;;7.70;80.26;95944.78;5047345;28;20699;-60
2022/04/07 00:59:18;;;;;;;1.00;0.70;;;;;;;7.64;81.06;95943.97;5062359;28;20052;-61
2022/04/07 01:01:45;;;;;;;1.33;0.60;;;;;;;7.59;81.05;95938.56;5055035;28;20427;-61
2022/04/07 01:04:13;;;;;;;2.70;0.60;;;;;;;7.64;80.65;95935.09;5044870;28;20041;-59
2022/04/07 01:06:43;;;;;;;1.30;0.57;;;;;;;7.65;80.34;95934.00;5045624;28;20041;-60
2022/04/07 01:09:10;;;;;;;1.38;0.40;;;;;;;7.76;79.22;95929.41;5044531;28;20045;-59
2022/04/07 01:11:40;;;;;;;0.68;0.40;;;;;;;7.79;79.23;95920.81;5059265;28;20044;-60
2022/04/07 01:14:07;;;;;;;2.35;0.65;;;;;;;7.77;78.87;95922.94;5054331;28;20045;-58
2022/04/07 01:16:34;;;;;;;1.63;0.70;;;;;;;7.62;80.62;95913.78;5054711;28;20664;-60
2022/04/07 01:19:01;;;;;;;1.45;0.60;;;;;;;7.52;81.07;95914.59;5051444;28;20052;-60
2022/04/07 01:21:30;;;;;;;1.83;0.50;;;;;;;7.47;81.37;95916.47;5050960;28;20040;-59
2022/04/07 01:24:04;;;;;;;0.55;0.30;;;;;;;7.40;81.77;95912.16;5078337;28;20048;-61
2022/04/07 01:26:32;;;;;;;0.50;0.30;;;;;;;7.32;82.60;95904.63;5059446;28;20036;-59
2022/04/07 01:29:00;;;;;;;1.45;0.60;;;;;;;7.25;83.12;95894.09;5050854;28;20048;-60
2022/04/07 01:31:27;;;;;;;0.90;0.47;;;;;;;7.20;84.22;95907.56;5049648;28;20036;-59
2022/04/07 01:33:55;;;;;;;2.25;0.70;;;;;;;7.22;84.25;95902.72;5064532;28;20455;-59
2022/04/07 01:36:23;;;;;;;1.30;0.70;;;;;;;7.31;83.64;95894.09;5054490;28;20056;-59
2022/04/07 01:38:50;;;;;;;2.00;0.77;;;;;;;7.42;82.83;95901.13;5064933;28;20108;-61
2022/04/07 01:41:18;;;;;;;1.27;0.50;;;;;;;7.51;82.26;95899.50;5049073;28;20048;-60
2022/04/07 01:43:47;;;;;;;0.90;0.50;;;;;;;7.73;80.53;95893.06;5064829;28;20052;-60
2022/04/07 01:46:14;;;;;;;1.27;0.60;;;;;;;7.84;78.96;95884.94;5061986;28;20086;-61
2022/04/07 01:48:42;;;;;;;2.55;0.50;;;;;;;7.71;79.71;95887.13;5061387;28;20055;-61
2022/04/07 01:51:11;;;;;;;2.85;0.40;;;;;;;7.69;78.66;95873.13;5052641;28;20147;-61
2022/04/07 01:53:38;;;;;;;0.47;0.30;;;;;;;7.71;77.93;95873.66;5063735;28;20055;-60
2022/04/07 01:56:05;;;;;;;1.83;0.50;;;;;;;7.70;77.79;95879.31;5048136;28;20067;-61
2022/04/07 01:58:34;;;;;;;2.10;0.50;;;;;;;7.79;76.70;95875.81;5061483;28;20048;-61
2022/04/07 02:01:00;;;;;;;0.93;0.50;;;;;;;7.77;77.50;95871.75;5054200;28;20055;-60
2022/04/07 02:03:27;;;;;;;0.73;0.40;;;;;;;7.81;76.72;95872.81;5057042;28;20137;-61
2022/04/07 02:05:54;;;;;;;1.38;0.50;;;;;;;7.79;77.59;95873.13;5047530;28;20123;-59
2022/04/07 02:08:20;;;;;;;0.90;0.52;;;;;;;7.84;76.05;95874.16;5048978;28;20055;-60
2022/04/07 02:10:47;;;;;;;0.60;0.40;;;;;;;7.96;75.26;95871.22;5051486;28;20045;-59
2022/04/07 02:13:14;;;;;;;1.15;0.55;;;;;;;8.06;74.79;95871.19;5062420;28;20041;-59
2022/04/07 02:15:40;;;;;;;0.85;0.47;;;;;;;8.04;75.16;95865.28;5062991;28;20037;-60
2022/04/07 02:18:07;;;;;;;1.48;0.60;;;;;;;8.05;74.93;95866.88;5056551;28;20048;-59
2022/04/07 02:20:34;;;;;;;1.20;0.50;;;;;;;8.12;74.00;95863.91;5058936;28;20037;-59
2022/04/07 02:23:00;;;;;;;1.20;0.45;;;;;;;8.14;74.44;95862.53;5071017;28;20036;-59
2022/04/07 02:25:28;;;;;;;1.48;0.65;;;;;;;8.10;75.74;95863.38;5064105;28;20040;-60
2022/04/07 02:27:55;;;;;;;0.88;0.50;;;;;;;7.98;77.68;95860.94;5067200;28;20116;-60
2022/04/07 02:30:21;;;;;;;3.47;0.70;;;;;;;7.82;78.46;95861.00;5048408;28;20041;-59
2022/04/07 02:32:48;;;;;;;0.60;0.47;;;;;;;7.69;79.95;95859.66;5059252;28;20325;-60
2022/04/07 02:35:15;;;;;;;1.55;0.60;;;;;;;7.63;80.41;95864.22;5063823;28;20052;-61
2022/04/07 02:37:42;;;;;;;1.45;0.57;;;;;;;7.66;81.29;95862.88;5063816;28;20046;-60
2022/04/07 02:40:11;;;;;;;2.60;0.60;;;;;;;7.60;81.58;95859.41;5059067;28;20041;-60
2022/04/07 02:42:38;;;;;;;1.63;0.75;;;;;;;7.42;82.75;95872.31;5066392;28;20049;-60
2022/04/07 02:45:05;;;;;;;2.90;0.73;;;;;;;7.45;82.99;95870.97;5057239;28;20048;-60
2022/04/07 02:47:33;;;;;;;1.55;0.73;;;;;;;7.29;84.63;95865.56;5057838;28;20124;-62
2022/04/07 02:50:00;;;;;;;1.20;0.70;;;;;;;7.21;85.13;95854.50;5061136;28;20115;-61
2022/04/07 02:52:26;;;;;;;1.10;0.55;;;;;;;7.28;84.93;95852.38;5056030;28;20041;-59
2022/04/07 02:54:53;;;;;;;2.10;0.60;;;;;;;7.24;85.00;95856.69;5049579;28;20361;-60
2022/04/07 02:57:23;;;;;;;1.75;0.75;;;;;;;7.28;84.92;95850.50;5049144;28;20052;-60
2022/04/07 02:59:50;;;;;;;1.00;0.70;;;;;;;7.18;85.60;95855.84;5052170;28;20101;-60
2022/04/07 03:02:17;;;;;;;1.38;0.63;;;;;;;7.14;85.95;95849.41;5057387;28;20415;-59
2022/04/07 03:04:43;;;;;;;2.42;0.70;;;;;;;7.05;86.61;95837.53;5061447;28;20044;-59
2022/04/07 03:07:10;;;;;;;1.23;0.60;;;;;;;7.13;86.10;95834.31;5064164;28;20040;-59
2022/04/07 03:09:37;;;;;;;3.75;0.73;;;;;;;7.14;85.96;95841.31;5053046;28;20052;-60
2022/04/07 03:12:04;;;;;;;1.75;0.90;;;;;;;7.13;85.78;95835.16;5048200;28;20045;-59
2022/04/07 03:14:30;;;;;;;1.55;0.55;;;;;;;7.26;84.43;95841.09;5064270;28;20053;-60
2022/04/07 03:16:58;;;;;;;2.80;0.82;;;;;;;7.27;84.81;95834.63;5051491;28;20085;-60
2022/04/07 03:19:24;;;;;;;1.25;0.75;;;;;;;7.21;84.62;95835.66;5045219;28;20558;-61
2022/04/07 03:21:51;;;;;;;3.35;0.70;;;;;;;7.16;85.01;95829.19;5063383;28;20048;-60
2022/04/07 03:24:18;;;;;;;2.38;0.77;;;;;;;7.20;84.32;95816.03;5073415;28;20091;-59
2022/04/07 03:27:07;;;;;;;3.53;0.90;;;;;;;7.21;84.60;95798.81;5045653;28;20136;-60
2022/04/07 03:29:34;;;;;;;1.90;0.75;;;;;;;7.18;84.63;95802.03;5063458;28;20055;-59
2022/04/07 03:32:02;;;;;;;1.65;0.60;;;;;;;7.20;84.06;95788.31;5065078;28;20454;-59
2022/04/07 03:34:28;;;;;;;2.92;0.68;;;;;;;7.23;83.46;95796.63;5051457;28;20045;-60
2022/04/07 03:36:55;;;;;;;1.50;0.95;;;;;;;7.31;82.93;95798.00;5052195;28;20049;-59
2022/04/07 03:39:22;;;;;;;3.70;0.95;;;;;;;7.33;83.49;95801.22;5056172;28;20511;-59
2022/04/07 03:41:48;;;;;;;1.75;0.60;;;;;;;7.38;82.98;95790.44;5046685;28;20067;-59
2022/04/07 03:44:16;;;;;;;1.20;0.63;;;;;;;7.35;82.71;95799.06;5055923;28;20890;-59
2022/04/07 03:46:42;;;;;;;1.27;0.70;;;;;;;7.36;82.67;95797.16;5055809;28;20106;-59
2022/04/07 03:49:09;;;;;;;2.00;0.90;;;;;;;7.36;82.85;95798.00;5058170;28;20036;-59
2022/04/07 03:51:36;;;;;;;2.72;1.10;;;;;;;7.38;83.35;95787.75;5056979;28;20442;-60
2022/04/07 03:54:08;;;;;;;0.80;0.60;;;;;;;7.35;82.84;95798.25;5062034;28;20040;-60
2022/04/07 03:56:35;;;;;;;1.83;0.70;;;;;;;7.32;82.57;95788.00;5050027;28;20049;-59
2022/04/07 03:59:02;;;;;;;1.00;0.60;;;;;;;7.29;82.72;95775.91;5045737;28;20055;-60
2022/04/07 04:01:29;;;;;;;1.80;0.70;;;;;;;7.27;82.68;95765.41;5053255;28;20044;-60
2022/04/07 04:03:56;;;;;;;1.25;0.60;;;;;;;7.26;82.66;95763.00;5050502;28;20171;-60
2022/04/07 04:06:23;;;;;;;0.80;0.47;;;;;;;7.22;82.75;95770.78;5053867;28;20044;-61
2022/04/07 04:08:49;;;;;;;2.17;1.00;;;;;;;7.27;82.47;95767.31;5059952;28;20041;-59
2022/04/07 04:11:16;;;;;;;1.92;0.60;;;;;;;7.30;82.05;95769.47;5062247;28;20051;-60
2022/04/07 04:13:42;;;;;;;1.10;0.47;;;;;;;7.32;82.42;95764.59;5065358;28;20051;-61
2022/04/07 04:16:09;;;;;;;1.33;0.70;;;;;;;7.34;81.93;95761.66;5059707;28;20600;-60
2022/04/07 04:18:36;;;;;;;2.17;0.98;;;;;;;7.35;81.71;95752.47;5063006;28;20037;-61
2022/04/07 04:21:02;;;;;;;1.55;0.68;;;;;;;7.41;81.85;95754.91;5051682;28;20040;-61
2022/04/07 04:23:29;;;;;;;1.92;0.98;;;;;;;7.44;81.73;95756.22;5050478;28;20500;-61
2022/04/07 04:25:55;;;;;;;3.35;0.70;;;;;;;7.47;81.33;95761.09;5060701;28;20037;-61
2022/04/07 04:28:22;;;;;;;1.17;0.60;;;;;;;7.44;81.49;95755.44;5056865;28;20098;-60
2022/04/07 04:30:48;;;;;;;1.00;0.65;;;;;;;7.46;81.72;95766.75;5048132;28;20044;-61
2022/04/07 04:33:15;;;;;;;2.63;1.38;;;;;;;7.59;80.96;95760.00;5054400;28;20036;-61
2022/04/07 04:35:42;;;;;;;1.55;0.60;;;;;;;7.68;79.92;95759.16;5058923;28;20176;-60
2022/04/07 04:38:08;;;;;;;2.42;0.70;;;;;;;7.62;80.50;95754.88;5056470;28;20044;-61
2022/04/07 04:40:35;;;;;;;0.80;0.55;;;;;;;7.60;80.10;95748.97;5061983;28;20045;-60
2022/04/07 04:43:01;;;;;;;4.07;2.08;;;;;;;7.67;79.74;95745.97;5056253;28;20067;-61
2022/04/07 04:45:28;;;;;;;0.77;0.50;;;;;;;7.68;78.88;95732.22;5046242;28;20061;-60
2022/04/07 04:47:55;;;;;;;0.90;0.50;;;;;;;7.61;79.43;95731.72;5060663;28;20056;-60
2022/04/07 04:50:22;;;;;;;1.98;0.73;;;;;;;7.60;79.65;95730.09;5044879;28;20053;-62
2022/04/07 04:52:49;;;;;;;1.55;0.70;;;;;;;7.62;79.68;95732.50;5054785;28;20040;-60
2022/04/07 04:55:16;;;;;;;3.15;0.85;;;;;;;7.63;79.50;95731.44;5054239;28;20040;-61
2022/04/07 04:57:42;;;;;;;1.58;0.80;;;;;;;7.66;79.69;95720.09;5063390;28;20044;-61
2022/04/07 05:00:09;;;;;;;4.68;0.80;;;;;;;7.66;80.28;95703.94;5059832;28;20051;-61
2022/04/07 05:02:37;;;;;;;1.27;0.80;;;;;;;7.64;80.28;95706.94;5055356;28;20049;-61
2022/04/07 05:05:06;;;;;;;1.33;0.73;;;;;;;7.61;80.02;95712.03;5057388;28;20049;-60
2022/04/07 05:07:32;;;;;;;1.58;0.85;;;;;;;7.62;79.94;95711.75;5044466;28;20045;-61
2022/04/07 05:09:59;;;;;;;1.20;0.60;;;;;;;7.57;80.69;95717.16;5042425;28;20106;-61
2022/04/07 05:12:29;;;;;;;1.13;0.65;;;;;;;7.54;81.16;95707.75;5047009;28;20474;-61
2022/04/07 05:14:55;;;;;;;3.58;0.68;;;;;;;7.58;80.90;95709.88;5043275;28;20103;-60
2022/04/07 05:17:22;;;;;;;1.42;0.70;;;;;;;7.55;81.40;95705.84;5057188;28;20041;-60
2022/04/07 05:19:49;;;;;;;1.60;0.70;;;;;;;7.59;81.44;95701.53;5041725;28;20045;-62
2022/04/07 05:22:16;;;;;;;2.95;0.88;;;;;;;7.50;81.66;95698.59;5068705;28;20040;-61
2022/04/07 05:24:42;;;;;;;2.50;0.63;;;;;;;7.42;81.98;95699.94;5063436;28;20041;-61
2022/04/07 05:27:09;;;;;;;1.85;0.75;;;;;;;7.47;82.59;95698.31;5062600;28;20063;-61
2022/04/07 05:29:35;;;;;;;1.25;0.60;;;;;;;7.54;81.51;95688.09;5056448;28;20044;-61
2022/04/07 05:32:02;;;;;;;2.28;0.80;;;;;;;7.46;82.40;95691.34;5055700;28;20044;-61
2022/04/07 05:34:30;;;;;;;1.02;0.68;;;;;;;7.46;82.77;95677.88;5047817;28;20218;-61
2022/04/07 05:36:56;;;;;;;1.08;0.60;;;;;;;7.41;82.48;95684.09;5044195;28;20094;-61
2022/04/07 05:39:23;;;;;;;6.68;1.15;;;;;;;7.41;82.82;95678.72;5052270;28;20700;-60
2022/04/07 05:41:50;;;;;;;1.25;0.60;;;;;;;7.43;82.37;95673.84;5046030;28;20055;-61
2022/04/07 05:44:17;;;;;;;1.38;0.60;;;;;;;7.51;82.45;95673.28;5043322;28;20041;-61
2022/04/07 05:46:43;;;;;;;1.00;0.70;;;;;;;7.57;81.81;95665.19;5054637;28;20459;-60
2022/04/07 05:49:11;;;;;;;1.85;0.80;;;;;;;7.74;81.25;95665.66;5044603;28;20048;-61
2022/04/07 05:51:38;;;;;;;1.48;0.70;;;;;;;7.86;81.51;95667.22;5075181;28;20076;-61
2022/04/07 05:54:05;;;;;;;1.33;0.60;;;;;;;7.88;80.13;95655.09;5057306;28;20076;-61
2022/04/07 05:56:31;;;;;;;0.80;0.50;;;;;;;8.00;79.75;95649.34;5058372;28;21280;-62
2022/04/07 05:58:58;;;;;;;1.10;0.50;;;;;;;8.10;79.57;95634.22;5054531;28;20052;-62
2022/04/07 06:01:30;;;;;;;1.00;0.40;;;;;;;8.06;79.39;95620.50;5061785;28;20041;-61
2022/04/07 06:03:57;;;;;;;0.73;0.45;;;;;;;7.97;79.72;95606.00;5051792;28;20108;-60
2022/04/07 06:06:23;;;;;;;3.83;0.75;;;;;;;7.97;79.19;95606.00;5052375;28;20138;-62
2022/04/07 06:08:50;;;;;;;1.73;0.70;;;;;;;8.02;78.34;95619.44;5052392;28;20052;-62
2022/04/07 06:11:16;;;;;;;0.85;0.50;;;;;;;8.17;78.90;95619.34;5048075;28;20049;-62
2022/04/07 06:13:43;;;;;;;3.15;0.60;;;;;;;8.26;77.96;95621.47;5056755;28;20048;-62
2022/04/07 06:16:10;;;;;;;1.08;0.50;;;;;;;8.37;77.74;95631.06;5048047;28;20053;-60
2022/04/07 06:18:37;;;;;;;0.82;0.40;;;;;;;8.27;77.63;95621.19;5045928;28;20040;-60
2022/04/07 06:21:03;;;;;;;1.08;0.40;;;;;;;8.23;77.69;95622.81;5061788;28;20639;-61
2022/04/07 06:23:32;;;;;;;0.95;0.60;;;;;;;8.27;77.23;95614.97;5063230;28;20045;-61
2022/04/07 06:25:59;;;;;;;0.40;0.40;;;;;;;8.28;77.06;95621.97;5053340;28;20076;-62
2022/04/07 06:28:25;;;;;;;1.38;0.50;;;;;;;8.38;76.90;95619.22;5064411;28;20051;-61
2022/04/07 06:30:54;;;;;;;1.70;0.40;;;;;;;8.38;76.65;95621.91;5055826;28;20040;-61
2022/04/07 06:33:21;;;;;;;0.93;0.73;;;;;;;8.50;75.78;95620.72;5055044;28;20527;-61
2022/04/07 06:35:49;;;;;;;1.48;0.57;;;;;;;8.58;74.98;95626.38;5060318;28;20079;-61
2022/04/07 06:38:16;;;;;;;2.05;0.50;;;;;;;8.63;74.15;95617.44;5055019;28;20053;-62
2022/04/07 06:40:44;;;;;;;3.03;0.60;;;;;;;8.51;75.58;95623.16;5069881;28;20051;-61
2022/04/07 06:43:11;;;;;;;1.65;0.43;;;;;;;8.46;76.01;95613.22;5054022;28;20043;-62
2022/04/07 06:45:38;;;;;;;1.00;0.50;;;;;;;8.46;76.22;95612.41;5049353;28;20060;-61
2022/04/07 06:48:05;;;;;;;0.80;0.50;;;;;;;8.61;75.67;95603.41;5060038;28;20052;-61
2022/04/07 06:50:32;;;;;;;0.85;0.40;;;;;;;8.64;76.12;95597.47;5048439;28;20055;-61
2022/04/07 06:53:00;;;;;;;2.63;0.38;;;;;;;8.76;74.47;95607.88;5059066;28;20036;-61
2022/04/07 06:55:28;;;;;;;1.58;0.40;;;;;;;8.68;74.83;95614.69;5063399;28;20248;-62
2022/04/07 06:58:03;;;;;;;0.75;0.28;;;;;;;8.85;74.79;95597.28;5064964;28;20048;-61
2022/04/07 07:00:33;;;;;;;0.60;0.35;;;;;;;8.89;74.86;95595.63;5059871;28;20608;-60
2022/04/07 07:03:02;;;;;;;1.10;0.55;;;;;;;9.02;74.40;95583.31;5049663;28;20454;-60
2022/04/07 07:05:32;;;;;;;0.88;0.38;;;;;;;9.14;74.46;95585.63;5046887;28;20110;-65
2022/04/07 07:08:14;;;;;;;0.73;0.38;;;;;;;9.97;73.21;95573.81;5057344;28;20068;-60
2022/04/07 07:10:43;;;;;;;0.60;0.40;;;;;;;9.76;71.34;95565.97;5044847;28;20106;-62
2022/04/07 07:13:10;;;;;;;1.08;0.40;;;;;;;9.93;71.04;95561.97;5060072;28;20045;-58
2022/04/07 07:15:37;;;;;;;0.30;0.30;;;;;;;9.82;71.42;95552.38;5051255;28;20419;-59
2022/04/07 07:18:03;;;;;;;1.98;0.50;;;;;;;10.10;70.37;95557.94;5046493;28;20044;-58
2022/04/07 07:20:30;;;;;;;1.08;0.30;;;;;;;10.41;68.58;95544.75;5044875;28;20139;-57
2022/04/07 07:23:03;;;;;;;1.25;0.32;;;;;;;10.18;70.11;95540.25;5059955;28;20063;-64
2022/04/07 07:25:31;;;;;;;0.80;0.20;;;;;;;9.73;71.04;95538.75;5054534;28;20091;-66
2022/04/07 07:27:58;;;;;;;0.75;0.30;;;;;;;9.44;72.36;95535.03;5048923;28;20049;-63
2022/04/07 07:30:25;;;;;;;0.80;0.30;;;;;;;9.47;73.30;95537.16;5075960;28;20048;-60
2022/04/07 07:32:58;;;;;;;1.30;0.25;;;;;;;9.37;72.55;95532.69;5052768;28;20197;-61
2022/04/07 07:35:25;;;;;;;0.52;0.22;;;;;;;9.50;72.82;95533.91;5069374;28;20382;-61
2022/04/07 07:38:01;;;;;;;0.40;0.28;;;;;;;9.66;73.49;95524.78;5060917;28;20504;-62
2022/04/07 07:40:32;;;;;;;0.32;0.20;;;;;;;9.68;73.14;95528.78;5063247;28;20041;-62
2022/04/07 07:43:01;;;;;;;0.57;0.30;;;;;;;9.69;72.55;95511.47;5057619;28;20048;-62
2022/04/07 07:45:32;;;;;;;2.03;0.40;;;;;;;9.75;73.17;95494.09;5066265;28;20079;-61
2022/04/07 07:48:28;;;;;;;2.47;0.40;;;;;;;9.83;73.04;95502.63;5056035;28;20112;-62
2022/04/07 07:50:57;;;;;;;0.40;0.25;;;;;;;9.60;72.13;95502.41;5064183;28;20045;-61
2022/04/07 07:53:24;;;;;;;2.83;0.40;;;;;;;9.42;73.29;95477.00;5061053;28;20086;-61
2022/04/07 07:55:51;;;;;;;3.50;0.45;;;;;;;9.56;73.09;95479.78;5056402;28;20036;-61
2022/04/07 07:58:18;;;;;;;1.52;0.40;;;;;;;9.50;72.59;95477.16;5044146;28;20315;-62
2022/04/07 08:00:44;;;;;;;0.50;0.30;;;;;;;9.47;73.17;95485.84;5069675;28;20387;-64
2022/04/07 08:03:11;;;;;;;2.15;0.68;;;;;;;9.54;73.35;95474.66;5057221;28;20048;-61
2022/04/07 08:05:38;;;;;;;2.50;0.70;;;;;;;9.55;73.64;95454.66;5055988;28;20044;-64
2022/04/07 08:08:05;;;;;;;0.40;0.30;;;;;;;9.59;73.01;95474.59;5074998;28;20059;-64
2022/04/07 08:10:32;;;;;;;0.20;0.20;;;;;;;9.90;71.57;95449.00;5063056;28;20036;-65
2022/04/07 08:12:58;;;;;;;3.75;0.40;;;;;;;10.08;71.80;95469.00;5043850;28;20098;-65
2022/04/07 08:15:27;;;;;;;0.30;0.30;;;;;;;10.01;71.40;95436.13;5060016;28;20067;-64
2022/04/07 08:17:54;;;;;;;4.05;0.70;;;;;;;10.29;69.83;95441.59;5062890;28;20119;-63
2022/04/07 08:20:20;;;;;;;4.15;0.40;;;;;;;10.25;69.28;95435.19;5059494;28;20040;-64
2022/04/07 08:22:47;;;;;;;2.53;0.38;;;;;;;10.18;70.04;95435.56;5050448;28;20106;-65
2022/04/07 08:25:13;;;;;;;1.27;0.30;;;;;;;10.02;70.72;95451.25;5055457;28;20045;-65
2022/04/07 08:27:40;;;;;;;1.20;0.40;;;;;;;10.05;72.54;95431.72;5060738;28;20468;-64
2022/04/07 08:30:07;;;;;;;9.80;0.50;;;;;;;10.12;72.22;95424.03;5056456;28;20045;-66
2022/04/07 08:32:34;;;;;;;1.15;0.20;;;;;;;9.99;72.62;95428.31;5068014;28;20726;-66
2022/04/07 08:35:01;;;;;;;2.00;0.30;;;;;;;10.11;71.16;95435.97;5048474;28;20652;-65
2022/04/07 08:37:28;;;;;;;1.45;0.40;;;;;;;10.35;71.11;95429.59;5055255;28;20052;-66
2022/04/07 08:39:55;;;;;;;1.65;0.40;;;;;;;10.36;71.41;95430.41;5068187;28;20052;-66
2022/04/07 08:42:26;;;;;;;3.28;0.57;;;;;;;10.83;69.84;95426.84;5059160;28;20040;-64
2022/04/07 08:44:54;;;;;;;1.85;0.50;;;;;;;11.05;69.52;95418.78;5050999;28;20051;-67
2022/04/07 08:47:21;;;;;;;1.85;0.45;;;;;;;11.30;68.45;95403.09;5048813;28;20044;-67
2022/04/07 08:49:49;;;;;;;0.73;0.10;;;;;;;11.18;66.04;95371.09;5056520;28;20168;-66
2022/04/07 08:52:17;;;;;;;1.90;0.43;;;;;;;11.16;67.10;95386.88;5040234;28;20586;-62
2022/04/07 08:54:47;;;;;;;1.80;0.30;;;;;;;11.13;66.12;95408.34;5059838;28;20036;-61
2022/04/07 08:57:15;;;;;;;0.25;0.22;;;;;;;10.83;67.51;95376.19;5068994;28;20135;-62
2022/04/07 08:59:42;;;;;;;0.52;0.15;;;;;;;11.04;65.92;95400.94;5061987;28;20424;-63
2022/04/07 09:02:10;;;;;;;0.52;0.38;;;;;;;11.23;65.59;95389.16;5058103;28;20051;-62
2022/04/07 09:04:39;;;;;;;0.43;0.30;;;;;;;11.26;66.33;95385.03;5052711;28;20045;-62
2022/04/07 09:07:07;;;;;;;0.52;0.20;;;;;;;11.36;65.01;95389.44;5047460;28;20044;-62
2022/04/07 09:09:36;;;;;;;2.92;0.50;;;;;;;11.18;66.28;95392.00;5047754;28;20047;-66
2022/04/07 09:12:04;;;;;;;0.77;0.35;;;;;;;11.39;65.82;95375.28;5070159;28;20044;-67
2022/04/07 09:14:34;;;;;;;0.30;0.13;;;;;;;11.15;65.28;95377.16;5056346;28;20036;-62
2022/04/07 09:17:02;;;;;;;1.48;0.20;;;;;;;10.95;66.47;95378.41;5051789;28;20041;-68
2022/04/07 09:19:30;;;;;;;1.38;0.40;;;;;;;10.76;68.07;95406.38;5048277;28;20059;-61
2022/04/07 09:22:12;;;;;;;0.65;0.22;;;;;;;10.52;69.73;95374.13;5060991;28;20507;-67
2022/04/07 09:24:41;;;;;;;0.47;0.28;;;;;;;10.36;69.19;95381.69;5052443;28;20049;-62
2022/04/07 09:27:09;;;;;;;0.32;0.17;;;;;;;10.41;69.32;95395.94;5054538;28;20054;-60
2022/04/07 09:29:46;;;;;;;0.30;0.20;;;;;;;10.47;71.25;95377.72;5061871;28;20071;-63
2022/04/07 09:32:43;;;;;;;1.55;0.28;;;;;;;10.46;71.97;95376.13;5062026;28;20041;-61
2022/04/07 09:35:11;;;;;;;1.17;0.40;;;;;;;10.40;71.72;95372.66;5065061;28;20045;-61
2022/04/07 09:37:40;;;;;;;0.93;0.25;;;;;;;10.50;71.04;95365.47;5053614;28;20056;-61
2022/04/07 09:40:09;;;;;;;1.00;0.52;;;;;;;10.52;71.00;95379.53;5057105;28;20729;-62
2022/04/07 09:42:37;;;;;;;0.47;0.10;;;;;;;10.80;69.48;95363.28;5055329;28;20040;-62
2022/04/07 09:45:07;;;;;;;0.20;0.20;;;;;;;11.02;68.22;95338.16;5057340;28;20032;-62
2022/04/07 09:47:40;;;;;;;0.80;0.40;;;;;;;11.09;70.65;95337.72;5053180;28;20072;-62
2022/04/07 09:50:10;;;;;;;1.48;0.30;;;;;;;10.85;69.59;95319.84;5053796;28;20052;-62
2022/04/07 09:52:40;;;;;;;0.90;0.25;;;;;;;10.89;69.92;95318.13;5060146;28;20048;-61
2022/04/07 09:55:08;;;;;;;0.25;0.25;;;;;;;10.96;70.18;95325.84;5061413;28;20090;-62
2022/04/07 09:57:36;;;;;;;0.20;0.20;;;;;;;11.22;69.79;95310.91;5062396;28;20055;-62
2022/04/07 10:00:05;;;;;;;2.55;0.40;;;;;;;11.19;70.24;95293.34;5067339;28;20506;-61
2022/04/07 10:02:32;;;;;;;1.08;0.40;;;;;;;11.30;69.55;95300.16;5060899;28;20041;-62
2022/04/07 10:05:00;;;;;;;1.08;0.30;;;;;;;11.01;67.51;95295.13;5061546;28;20120;-61
2022/04/07 10:07:28;;;;;;;1.25;0.50;;;;;;;11.16;68.77;95289.34;5058026;28;20037;-63
2022/04/07 10:09:55;;;;;;;0.75;0.30;;;;;;;11.04;67.76;95276.38;5064725;28;20052;-61
2022/04/07 10:12:21;;;;;;;0.93;0.35;;;;;;;11.34;67.84;95283.25;5062633;28;20052;-63
2022/04/07 10:14:49;;;;;;;0.95;0.45;;;;;;;11.05;68.17;95261.72;5052667;28;20063;-62
2022/04/07 10:17:16;;;;;;;1.88;0.32;;;;;;;11.31;66.81;95265.72;5058257;28;20339;-61
2022/04/07 10:19:54;;;;;;;1.75;0.30;;;;;;;11.47;67.04;95268.03;5057108;28;20659;-61
2022/04/07 10:22:51;;;;;;;0.85;0.30;;;;;;;11.56;66.50;95267.00;5058778;28;20048;-61
2022/04/07 10:25:19;;;;;;;0.10;0.10;;;;;;;11.70;64.12;95250.66;5058725;28;20045;-61
2022/04/07 10:27:51;;;;;;;0.75;0.20;;;;;;;11.81;64.27;95258.50;5054435;28;20036;-68
2022/04/07 10:30:18;;;;;;;1.08;0.20;;;;;;;11.82;64.36;95255.47;5061838;28;20086;-67
2022/04/07 10:32:45;;;;;;;0.10;0.10;;;;;;;11.85;63.22;95237.78;5059288;28;20455;-67
2022/04/07 10:35:30;;;;;;;2.20;0.35;;;;;;;11.62;63.71;95240.56;5056731;28;20411;-66
2022/04/07 10:37:58;;;;;;;0.55;0.15;;;;;;;11.61;62.63;95228.09;5049264;28;20043;-68
2022/04/07 10:40:34;;;;;;;1.00;0.30;;;;;;;11.54;62.93;95227.78;5070171;28;20044;-61
2022/04/07 10:43:05;;;;;;;1.63;0.20;;;;;;;11.76;63.20;95231.53;5052243;28;20056;-67
2022/04/07 10:45:36;;;;;;;0.20;0.20;;;;;;;11.99;63.28;95226.84;5047107;28;20094;-68
2022/04/07 10:48:29;;;;;;;0.77;0.30;;;;;;;12.02;61.64;95219.97;5049666;28;20041;-69
2022/04/07 10:51:01;;;;;;;0.65;0.10;;;;;;;11.85;62.05;95237.78;5055628;28;20066;-69
2022/04/07 10:53:33;;;;;;;0.63;0.20;;;;;;;11.89;62.40;95227.91;5053806;28;20044;-68
2022/04/07 10:56:07;;;;;;;0.43;0.10;;;;;;;11.86;61.86;95209.56;5045646;28;20072;-68
2022/04/07 10:58:54;;;;;;;0.80;0.10;;;;;;;12.14;61.97;95190.38;5052839;28;20053;-66
2022/04/07 11:01:33;;;;;;;1.55;0.20;;;;;;;12.01;62.56;95199.41;5043655;28;20054;-67
2022/04/07 11:04:18;;;;;;;0.40;0.20;;;;;;;11.92;62.33;95208.31;5055604;28;20072;-68
2022/04/07 11:07:16;;;;;;;0.10;0.10;;;;;;;11.91;62.59;95197.78;5054338;28;20423;-66
2022/04/07 11:09:58;;;;;;;0.35;0.10;;;;;;;11.84;62.60;95203.66;5060674;28;20139;-66
2022/04/07 11:12:34;;;;;;;0.73;0.17;;;;;;;11.95;63.02;95207.66;5053922;28;20055;-63
2022/04/07 11:15:01;;;;;;;0.22;0.20;;;;;;;11.78;63.02;95181.31;5061160;28;20665;-67
2022/04/07 11:17:32;;;;;;;1.33;0.10;;;;;;;12.06;62.54;95177.59;5064827;28;20085;-67
2022/04/07 11:20:13;;;;;;;1.02;0.17;;;;;;;12.27;62.58;95182.41;5051174;28;20048;-67
2022/04/07 11:22:55;;;;;;;0.20;0.13;;;;;;;12.26;63.11;95183.50;5053849;28;20044;-67
2022/04/07 11:25:22;;;;;;;;;;;;;;;12.16;62.79;95177.28;5061164;28;20735;-66
2022/04/07 11:28:13;;;;;;;0.90;0.20;;;;;;;12.32;62.58;95195.81;5068132;28;19931;-68
2022/04/07 11:30:51;;;;;;;0.57;0.17;;;;;;;12.57;62.72;95186.09;5052043;28;20041;-69
2022/04/07 11:33:27;;;;;;;1.80;0.10;;;;;;;12.27;62.59;95161.50;5056577;28;20041;-69
2022/04/07 11:36:00;;;;;;;0.30;0.10;;;;;;;12.21;62.39;95141.84;5054249;28;20033;-69
2022/04/07 11:38:34;;;;;;;0.25;0.10;;;;;;;12.18;62.68;95144.41;5043554;28;20060;-69
2022/04/07 11:41:29;;;;;;;0.52;0.10;;;;;;;12.51;62.34;95154.81;5053165;28;20049;-69
2022/04/07 11:43:56;;;;;;;1.15;0.10;;;;;;;12.60;61.55;95168.38;5033871;28;20061;-69
2022/04/07 11:46:28;;;;;;;1.10;0.22;;;;;;;12.80;61.04;95163.44;5041503;28;20037;-69